Wilmar Santos

Recruteur - Millonarios
19 Nov 2028
Dimanche
Processus

Personnalité

Adaptabilité (15) Ambition (9) Controverse (1) Loyauté (18) Pression (1) Professionnalisme (8) Sportivité (15) Tempérament (18)

Profil

Style d'entraînement Démocratique
Diplôme Continental Pro
Détermination 8
Gestion des joueurs 11
Motivation 8
Discipline 7
Satisfaction professionnelle
100%
Fatigue
0%
Rôle Recruteur
Salaire 89.6K p/s
Contrat 14.03.2030

Performance

Comportement Bon
Efficacité de l'entraînement
46%
Développement des joueurs
70%
Prévention des blessures
55%
Mise en place tactique
45%

Événements récents

A participé à une réunion de recrutement maintenant
A recommandé une cible de transfert maintenant
A recommandé une cible de transfert maintenant
A recommandé une cible de transfert maintenant
A participé à une réunion de recrutement maintenant
A évalué un joueur maintenant
A évalué un joueur maintenant
A évalué un joueur maintenant

Suivi en cours

346
Joueur Club Statut Capacité Confiance Observé Dernière observation Dernier vote
Yuber Quiñónes Patriotas Actif 118 / 118 40% 2 18.11.2028 -
Patricio Moyano Defensores Actif 119 / 120 40% 3 18.11.2028 -
Juan Bisanz Huracán Actif 129 / 129 40% 1 18.11.2028 -
Máximo Munarriz San Telmo Actif 100 / 106 40% 3 17.11.2028 -
Emiliano Gómez Boston River Actif 123 / 121 40% 4 17.11.2028 -
Juan Hurtado Alianza Petrolera Actif 127 / 126 40% 2 17.11.2028 -
Manuel Duarte Barracas Central Actif 122 / 123 40% 1 17.11.2028 -
Felipe Varela Trujillanos Actif 96 / 98 40% 1 17.11.2028 -
Mateo Caballero Defensor Sporting Actif 96 / 107 40% 4 16.11.2028 -
Tiago Gordillo San Miguel Actif 84 / 96 40% 3 16.11.2028 -
Tomás Valentukonis Najran Actif 106 / 104 40% 1 16.11.2028 -
Mateo Faure BATE Actif 87 / 98 40% 4 15.11.2028 -
Azizbek To'lqinbekov Bunyodkor Actif 108 / 108 40% 1 15.11.2028 -
Davinchi Getafe Actif 132 / 132 40% 1 15.11.2028 -
Jeremías Merlo Gimnasia La Plata Actif 120 / 125 40% 4 13.11.2028 -
Christos Mouzakitis Hull City Actif 135 / 147 40% 3 13.11.2028 -
Matías Ramírez Godoy Cruz Actif 118 / 120 40% 3 13.11.2028 -
Alan Velasco Fortaleza Actif 142 / 134 40% 6 13.11.2028 -
Peyton Miller New England Revolution Actif 115 / 120 40% 2 13.11.2028 -
Ivan Borges Defensores Actif 82 / 91 40% 1 13.11.2028 -
Nicolás Retamar Ferro Carril Oeste Actif 123 / 116 40% 2 12.11.2028 -
Rodrigo Cabral Huracán Actif 130 / 125 40% 3 12.11.2028 -
Alejandro Piedrahita Deportivo Pereira Actif 124 / 126 40% 4 10.11.2028 -
Daniel Barrea Godoy Cruz Actif 124 / 123 40% 4 10.11.2028 -
Andrés Arroyo Atletico Bucaramanga Actif 130 / 121 40% 5 09.11.2028 -
Bryan Castrillón Independiente Medellin Actif 119 / 119 40% 2 09.11.2028 -
Alejo Dramisino Atlanta Actif 125 / 119 40% 2 09.11.2028 -
Luciano Posadas Central Córdoba SdE Actif 99 / 103 40% 2 09.11.2028 -
Joaquín Gho Argentinos Juniors Actif 126 / 128 40% 1 07.11.2028 -
Facundo Lencioni Gimnasia y Esgrima Actif 120 / 123 40% 1 07.11.2028 -
Alan Lescano Argentinos Juniors Actif 138 / 133 40% 6 06.11.2028 -
Luciano Cosentino Wanderers Actif 132 / 124 40% 3 06.11.2028 -
Pedro de la Vega Columbus Crew Actif 146 / 139 40% 1 05.11.2028 -
Alex Luna Instituto Actif 138 / 132 40% 6 02.11.2028 -
Alexis Cuello San Lorenzo Actif 133 / 126 40% 1 02.11.2028 -
Allan Saint-Maximin Charlotte Football Club Actif 147 / 141 40% 4 01.11.2028 -
Mauro Valiente Estudiantes Actif 119 / 116 40% 2 01.11.2028 -
Tomás Pozzo Godoy Cruz Actif 125 / 123 40% 6 31.10.2028 -
Bruno Leyes Godoy Cruz Actif 133 / 129 40% 3 31.10.2028 -
Aarón Molinas Defensa y Justicia Actif 128 / 129 40% 3 30.10.2028 -
Harrison Armstrong Ipswich Town Actif 134 / 143 40% 3 29.10.2028 -
Matías Magdaleno Estudiantes Actif 106 / 116 40% 1 29.10.2028 -
Roberto Medina La Equidad Actif 93 / 104 40% 1 29.10.2028 -
Joel Ezra Enyimba Actif 100 / 104 40% 1 28.10.2028 -
Esteban Obregón Montevideo City Torque Actif 119 / 120 40% 3 27.10.2028 -
Edison López Atletico Nacional Actif 121 / 121 40% 1 27.10.2028 -
Matko Miljevic Racing Club Actif 134 / 131 40% 2 25.10.2028 -
Néider Ospina Llaneros Actif 126 / 120 40% 2 25.10.2028 -
Juan Cruz de los Santos Nacional Actif 130 / 130 40% 4 23.10.2028 -
Celías Ingenthron Platense Actif 123 / 126 40% 2 22.10.2028 -
Ayyoub Bouaddi Stoke City Actif 156 / 159 40% 2 22.10.2028 -
Aarón Martín Al-Qadisiyah Actif 120 / 126 40% 1 22.10.2028 -
Jannenson Sarmiento Junior Actif 122 / 124 40% 1 21.10.2028 -
Johan Martínez Deportivo Cali Actif 122 / 124 40% 1 20.10.2028 -
Diego García Danubio Actif 121 / 119 40% 1 17.10.2028 -
Antonio Galeano Remo Stars Actif 131 / 128 40% 4 16.10.2028 -
Iñaki Larthirigoyen San Telmo Actif 127 / 122 40% 3 16.10.2028 -
Martín Campos Ferro Carril Oeste Actif 116 / 117 40% 1 15.10.2028 -
Santiago Solari Racing Club Actif 133 / 126 40% 1 15.10.2028 -
Diego Cheuquepal Racing Actif 107 / 108 40% 4 14.10.2028 -
Felipe Obradovich Ferro Carril Oeste Actif 110 / 116 40% 1 14.10.2028 -
Chris Rigg West Ham United Actif 146 / 147 40% 1 14.10.2028 -
Gonzalo Plata Nacional Actif 146 / 139 40% 1 14.10.2028 -
Hernán López Muñoz San Jose Earthquakes Actif 130 / 130 40% 3 13.10.2028 -
Alejo Cruz Juventud Actif 121 / 123 40% 2 12.10.2028 -
Cheikh Sabaly Vancouver Whitecaps Actif 132 / 126 40% 2 11.10.2028 -
Giovanni Leoni Lincoln City Actif 142 / 151 40% 2 09.10.2028 -
Jonathan De Irastorza Independiente Actif 127 / 132 40% 1 09.10.2028 -
Aytor Herrera Mineros de Guayana Actif 92 / 94 40% 1 09.10.2028 -
Óscar Hinojosa Metropolitanos Actif 81 / 88 40% 1 03.10.2028 -
Gideon Manaseh Ikorodu City Actif 95 / 99 40% 3 06.09.2028 -
Franco Nicola Liverpool Montevideo Actif 126 / 121 40% 1 06.09.2028 -
Alejandro Tapia Central Norte Actif 85 / 94 40% 1 06.09.2028 -
Estanislao López Colón Actif 96 / 100 40% 1 06.09.2028 -
Mauro Carrizo Atlético Tucumán Actif 107 / 109 40% 1 29.08.2028 -
Tobías Andrada River Plate Actif 120 / 125 40% 1 29.08.2028 -
Luis Otávio Orlando City Actif 118 / 122 40% 1 28.08.2028 -
Hosea Michael Remo Stars Actif 93 / 93 40% 1 28.08.2028 -
Lautaro Dufur Juventud Actif 101 / 106 40% 2 25.08.2028 -
Luca Campagnaro Colón Actif 88 / 97 40% 1 25.08.2028 -
Kamaldeen Atiemo Wa All Stars Actif 103 / 111 40% 2 24.08.2028 -
Bahodir Halilov Nasaf Actif 78 / 90 40% 1 24.08.2028 -
Máximo Magnoli Ferro Carril Oeste Actif 100 / 100 40% 1 24.08.2028 -
Agustín Medina Lanús Actif 122 / 125 40% 1 23.08.2028 -
Lucas Camejo River Plate Actif 92 / 90 40% 2 21.08.2028 -
Abubakar Adams Aduana Stars Actif 92 / 93 40% 1 21.08.2028 -
Camillo Tavernelli Arezzo Actif 119 / 123 40% 2 20.08.2028 -
Alessio Zerbin Frosinone Actif 146 / 138 40% 1 20.08.2028 -
Alessandro Arena Arezzo Actif 121 / 123 40% 1 20.08.2028 -
El Bilal Touré Atalanta Actif 147 / 145 40% 1 19.08.2028 -
Francisco Machis Llaneros Actif 83 / 90 40% 1 19.08.2028 -
Federico Matarán Giana Erminio Actif 109 / 118 40% 1 19.08.2028 -
Unai Gómez Udinese Actif 149 / 145 40% 1 16.08.2028 -
Sebastiano Esposito Cagliari Actif 158 / 148 40% 3 15.08.2028 -
Musa Barrow ES Setif Actif 138 / 141 40% 2 14.08.2028 -
Kristian Thorstvedt Sassuolo Actif 145 / 140 40% 1 14.08.2028 -
Antonino Gallo Bari Actif 149 / 146 40% 1 14.08.2028 -
Borja Sainz Udinese Actif 160 / 155 40% 2 13.08.2028 -
Santiago Pierotti Lecce Actif 144 / 141 40% 2 13.08.2028 -
Giacomo Raspadori Atalanta Actif 157 / 153 40% 1 13.08.2028 -
Zito Luvumbo Cagliari Actif 134 / 137 40% 4 11.08.2028 -
Thierry Rendall Correia Venezia Actif 156 / 147 40% 1 11.08.2028 -
Nicolò Zaniolo Udinese Actif 152 / 150 40% 1 10.08.2028 -
Jaidon Anthony Derby County Actif 150 / 144 40% 8 09.08.2028 -
Carlos Alcaraz Stoke City Actif 155 / 155 40% 4 09.08.2028 -
Rodrigo Gomes Wolverhampton Actif 152 / 147 40% 2 08.08.2028 -
Cucho Hernández Granada Actif 152 / 149 40% 1 08.08.2028 -
Jayden Addai Bari Actif 142 / 142 40% 1 08.08.2028 -
Andrey Santos Bolton Wanderers Actif 155 / 152 40% 1 07.08.2028 -
Jayden Bogle Leeds United Actif 155 / 144 40% 1 07.08.2028 -
Marcel Ruiz Crystal Palace Actif 153 / 148 40% 1 07.08.2028 -
Harry Wilson Leeds United Actif 153 / 151 40% 6 18.07.2028 -
Isaiah Jones Luton Town Actif 134 / 133 40% 2 18.07.2028 -
Nathan Broadhead Wrexham Actif 143 / 129 40% 1 18.07.2028 -
Marcus Edwards Burnley Actif 153 / 145 40% 6 17.07.2028 -
Humberto Acevedo Union Magdalena Perdu 104 / 104 76% 1 17.07.2028 -
Amine Boukamir Charleroi Actif 103 / 112 40% 2 10.07.2028 -
Javier Duque Valledupar Actif 103 / 105 76% 1 10.07.2028 Approuver
Diego Vargas Universidad de Concepcion Actif 93 / 98 40% 1 10.07.2028 -
Jaden Philogene Wolverhampton Actif 149 / 150 40% 5 03.07.2028 -
Brandon Thomas-Asante Blackpool Actif 133 / 124 40% 6 03.07.2028 -
Tyler Fletcher Rotherham United Actif 106 / 119 40% 3 05.06.2028 -
Simone Suppa Virtus Verona Actif 83 / 95 40% 1 05.06.2028 -
Yousef Salech Cardiff City Actif 138 / 133 40% 2 01.06.2028 -
Rodrigo Muniz Fulham Actif 137 / 142 40% 1 01.06.2028 -
Largie Ramazani Leeds United Actif 148 / 148 40% 1 31.05.2028 -
Patrick Agyemang Derby County Actif 138 / 129 40% 1 31.05.2028 -
Kasey McAteer Barnsley Actif 140 / 130 40% 3 30.05.2028 -
Jayden Danns Bradford City Actif 142 / 140 40% 1 28.05.2028 -
Stanley Mills Crewe Alexandra Actif 123 / 125 40% 2 27.05.2028 -
Vitaly Janelt Derby County Actif 146 / 151 40% 1 27.05.2028 -
Samuel Edozie Southampton Actif 140 / 132 40% 4 25.05.2028 -
Callum O'Hare Sheffield United Actif 132 / 137 40% 2 25.05.2028 -
William Osula Wrexham Actif 145 / 137 40% 5 24.05.2028 -
Ben Gannon Doak Charlton Athletic Actif 159 / 150 40% 12 23.05.2028 -
Abdoul Ouattara Port Vale Actif 128 / 132 40% 3 22.05.2028 -
Sorba Thomas Stoke City Actif 137 / 135 40% 2 20.05.2028 -
Konta Ismaily Actif 107 / 102 40% 1 18.05.2028 -
Nicolò Moranduzzo Renate Actif 93 / 94 40% 1 17.05.2028 -
Mohamed-Ali Cho Hull City Actif 153 / 139 40% 3 15.05.2028 -
Ayden Heaven Portsmouth Actif 141 / 148 40% 3 13.05.2028 -
Daniel Banjaqui Benfica Actif 123 / 124 40% 2 13.05.2028 -
Jeremy Sarmiento Middlesbrough Actif 133 / 139 40% 2 11.05.2028 -
Tyrese Campbell Sheffield United Actif 138 / 133 40% 3 07.05.2028 -
Juan David Sánchez Tigres Actif 91 / 94 52% 1 / 1m 03.05.2028 -
Orles Aragón Tigres Actif 103 / 103 42% 1 / 1m 03.05.2028 -
Cristian Peñate Alianza Petrolera Actif 95 / 98 30% 1 / 1m 03.05.2028 -
Riley McGree Middlesbrough Actif 132 / 133 40% 2 01.05.2028 -
Finn Azaz Southampton Actif 134 / 132 40% 1 29.04.2028 -
Andrey Ivlev Nizhniy Novgorod Actif 117 / 118 40% 1 23.04.2028 -
Dmytro Strilchuk Podillia Actif 92 / 89 40% 1 23.04.2028 -
Neco Williams Wrexham Actif 156 / 145 40% 1 21.04.2028 -
Demarai Gray Birmingham Actif 146 / 135 40% 1 21.04.2028 -
Josh Nichols Oldham Athletic Actif 117 / 129 40% 4 18.04.2028 -
Kelian Le Pironnec Mirandés Actif 100 / 108 40% 1 18.04.2028 -
Nuno Moreira Vasco da Gama Actif 136 / 130 40% 2 14.04.2028 -
Chemsdine Talbi Sunderland Actif 159 / 152 40% 1 14.04.2028 -
Tyreece Campbell Charlton Athletic Actif 129 / 120 40% 2 12.04.2028 -
Trey Nyoni Rotherham United Actif 136 / 141 40% 3 09.04.2028 -
Quilindschy Hartman Burnley Actif 151 / 145 40% 2 09.04.2028 -
Matvey Bardachev Zenit Actif 104 / 112 40% 1 09.04.2028 -
Matt O'Riley Brighton Actif 153 / 156 40% 1 07.04.2028 -
Andrés Gómez Vasco da Gama Actif 142 / 137 40% 2 05.04.2028 -
Erick Pulga Bahia Actif 131 / 134 40% 2 03.04.2028 -
Christian Kouamé Atlético Mineiro Actif 129 / 129 40% 2 03.04.2028 -
Jorthy Mokio ADO Den Haag Actif 141 / 135 40% 1 03.04.2028 -
Jan Bürger Northampton Town Actif 123 / 120 40% 1 03.04.2028 -
Marino Hinestroza Bahia Actif 123 / 127 40% 1 19.03.2028 -
Gustavo Albarracín Alavés Actif 113 / 119 40% 1 11.03.2028 -
Ryan Kavuma-McQueen Accrington Stanley Actif 119 / 127 40% 5 13.02.2028 -
Oscar Schwartau Norwich City Actif 135 / 135 40% 1 13.02.2028 -
Ryan McAidoo Oldham Athletic Actif 111 / 136 40% 4 12.02.2028 -
Henrique Carmo Sochi Actif 127 / 134 40% 2 12.02.2028 -
Ruben Ramos LA Galaxy Actif 98 / 104 40% 2 07.02.2028 -
Christ Wawa Gefle Actif 94 / 110 40% 2 07.02.2028 -
Luka Andrade Montevideo City Torque Actif 110 / 106 40% 2 05.02.2028 -
Esquerdinha Notts County Actif 124 / 127 40% 1 05.02.2028 -
Siyabonga Mabena Bidvest Wits Actif 113 / 132 40% 3 04.02.2028 -
Amin Nabizada Exeter City Actif 102 / 115 40% 1 04.02.2028 -
Benjamín Rodríguez Albion Actif 75 / 88 40% 1 03.02.2028 -
Romelle Donovan Brentford Actif 132 / 137 40% 1 03.02.2028 -
Honest Ahanor Atalanta Actif 125 / 146 40% 3 01.02.2028 -
Sindre Walle Egeli Udinese Actif 149 / 146 40% 2 01.02.2028 -
Tahiel Peralta Racing Club Actif 104 / 121 40% 1 01.02.2028 -
Mateo Peralta Danubio Actif 107 / 118 40% 2 31.01.2028 -
Alex Verón Vélez Actif 113 / 124 40% 1 31.01.2028 -
Pedro Baltika Actif 133 / 138 40% 5 30.01.2028 -
Francisco Triver River Plate Actif 93 / 97 40% 1 30.01.2028 -
Mateus Mané Burnley Actif 143 / 152 40% 2 29.01.2028 -
Luca Meirelles Kudrivka Actif 130 / 130 40% 1 29.01.2028 -
Luca Williams-Barnett Walsall Actif 129 / 129 40% 2 28.01.2028 -
Eli Junior Kroupi Bournemouth Actif 136 / 147 40% 1 27.01.2028 -
Rémi Himbert AC Ajaccio Actif 121 / 125 40% 3 25.01.2028 -
Ibrahim Fullah Charlton Athletic Actif 126 / 127 40% 1 25.01.2028 -
Lander Astiazarán Real Sociedad Actif 105 / 120 40% 2 23.01.2028 -
Nicolás Ferreira Artigas Actif 85 / 89 40% 1 23.01.2028 -
Shea Lacey Crystal Palace Actif 121 / 141 40% 1 23.01.2028 -
Nicolás Barros Schelotto Gimnasia La Plata Actif 127 / 129 40% 3 22.01.2028 -
Bazoumana Touré Newcastle United Actif 141 / 146 40% 1 21.01.2028 -
Matías Arias Vélez Actif 111 / 121 40% 1 19.01.2028 -
Giovanni Baroni Talleres Actif 109 / 120 40% 1 17.01.2028 -
Gorka Gorosabel Real Sociedad Actif 113 / 119 40% 1 17.01.2028 -
Igor Tyjon Barrow AFC Actif 117 / 129 40% 1 14.01.2028 -
Victor Hernandez Santa Fe Actif 121 / 125 40% 3 11.01.2028 -
Matias Siltanen Malmo FF Actif 122 / 132 40% 1 11.01.2028 -
Francisco Marchant Colo-Colo Actif 97 / 100 40% 1 10.01.2028 -
Mateo Silvetti Seattle Sounders Actif 123 / 128 40% 1 05.01.2028 -
Juan Rodríguez Cerro Largo Actif 92 / 105 40% 1 05.01.2028 -
Luighi Palmeiras Actif 119 / 115 40% 1 05.01.2028 -
Edwin Mosquera Santa Fe Actif 123 / 119 40% 1 28.12.2027 -
Bruno Barticciotto Talleres Actif 122 / 126 40% 1 02.12.2027 -
Victor Olatunji Real Salt Lake Actif 122 / 118 40% 1 02.12.2027 -
Santiago González Sporting Cristal Actif 126 / 123 40% 1 30.11.2027 -
Eliás Montiel Borussia Dortmund Actif 127 / 142 40% 1 05.07.2027 -
Tiago Freitas Benfica Actif 124 / 119 40% 1 05.07.2027 -
Radek Vítek Middlesbrough Actif 133 / 138 40% 3 28.06.2027 -
Myles Roberts Cambridge United Actif 118 / 107 40% 2 21.06.2027 -
Anthony Patterson Wrexham Actif 122 / 131 40% 1 21.06.2027 -
Josh Keeley Luton Town Actif 129 / 124 40% 2 14.06.2027 -
Robin Roefs Sunderland Actif 143 / 144 40% 1 14.06.2027 -
Federico Pereira Toulouse FC Actif 135 / 135 66% 1 01.06.2027 Approuver
Marvin Keller Chelsea Actif 136 / 137 67% 1 01.06.2027 Approuver
Gianluca Scamacca Atalanta Actif 139 / 146 40% 1 01.06.2027 -
Patson Daka Leicester City Actif 121 / 124 40% 1 31.05.2027 -
Ilyas Ansah Hull City Actif 140 / 136 40% 1 31.05.2027 Plus d'infos
Ronnie Edwards Queens Park Rangers Actif 130 / 127 40% 2 30.05.2027 -
Alfie Doughty Millwall Actif 128 / 132 40% 1 30.05.2027 -
Derry Murkin Derby County Actif 125 / 126 40% 1 30.05.2027 -
Matthew Targett Hull City Actif 130 / 126 40% 5 29.05.2027 -
Florentino Luís Ipswich Town Actif 141 / 139 40% 3 29.05.2027 -
James Trafford Leeds United Actif 138 / 147 40% 2 29.05.2027 -
Balázs Tóth Blackburn Rovers Actif 137 / 126 40% 3 29.05.2027 -
Alex Scott Bournemouth Actif 137 / 154 40% 4 28.05.2027 -
Callum Brittain Middlesbrough Actif 130 / 132 40% 2 28.05.2027 -
Adam Wharton Crystal Palace Actif 146 / 149 40% 1 26.05.2027 -
Jacob Greaves Ipswich Town Actif 151 / 136 40% 4 25.05.2027 -
Dara O'Shea Ipswich Town Actif 135 / 133 40% 4 25.05.2027 -
Milan van Ewijk Coventry City Actif 142 / 127 40% 2 25.05.2027 -
Fran Vieites Walsall Actif 132 / 121 40% 2 25.05.2027 -
Aidan Morris Middlesbrough Actif 134 / 135 40% 2 21.05.2027 -
Max Bird Birmingham Actif 139 / 131 40% 1 21.05.2027 -
Habib Diarra Sunderland Actif 137 / 138 40% 2 20.05.2027 -
Ousmane Diomande Nottingham Forest Actif 142 / 151 40% 1 20.05.2027 -
Alfie Whiteman Newport County Actif 105 / 104 40% 1 20.05.2027 -
Will Mannion Charlton Athletic Actif 106 / 116 40% 1 20.05.2027 -
Ferland Mendy Real Madrid Actif 140 / 148 40% 6 18.05.2027 -
Juanlu Bournemouth Actif 153 / 148 40% 2 18.05.2027 -
Will Dennis Milton Keynes Dons Actif 99 / 113 40% 3 17.05.2027 -
Riccardo Gagno Vicenza Actif 124 / 120 40% 1 17.05.2027 -
Elia Caprile Cagliari Actif 156 / 142 40% 2 16.05.2027 -
Nathan Trott Cardiff City Actif 118 / 131 40% 2 16.05.2027 -
Caoimhin Kelleher Brentford Actif 161 / 151 40% 2 15.05.2027 -
Vladan Kovačević Norwich City Actif 125 / 116 40% 1 15.05.2027 -
Filip Marschall Stevenage Actif 109 / 116 40% 2 14.05.2027 -
Nathan Bishop AFC Wimbledon Actif 95 / 103 40% 2 14.05.2027 -
Ryan Sessegnon Fulham Actif 145 / 148 40% 1 13.05.2027 -
Lewis O'Brien Wrexham Actif 123 / 123 40% 1 06.05.2027 -
Pelle Mattsson Norwich City Actif 112 / 131 40% 1 01.05.2027 -
Brooke Norton-Cuffy Hull City Actif 130 / 140 40% 4 30.04.2027 -
Raoul Bellanova Atalanta Actif 143 / 148 40% 2 30.04.2027 -
Jack Currie Oxford United Actif 135 / 121 40% 1 30.04.2027 -
Yehor Yarmoliuk Brentford Actif 160 / 143 40% 2 29.04.2027 -
Hidemasa Morita Hull City Actif 156 / 137 40% 3 27.04.2027 -
Toby Collyer West Bromwich Albion Actif 136 / 139 40% 1 25.04.2027 -
André Wolverhampton Actif 142 / 145 40% 1 20.04.2027 -
Harry Clarke Preston Actif 117 / 121 40% 3 16.04.2027 -
Azor Matusiwa Ipswich Town Actif 127 / 140 40% 2 16.04.2027 -
Darlin Yongwa Norwich City Actif 111 / 117 40% 1 13.04.2027 -
Oliver Skipp Leicester City Actif 128 / 126 40% 1 13.04.2027 -
Christopher Opéri Basaksehir Actif 120 / 133 40% 1 06.04.2027 -
Welington Southampton Actif 138 / 126 40% 3 05.04.2027 -
Nathan Collins Brentford Actif 134 / 153 40% 1 05.04.2027 -
Japhet Tanganga Sheffield United Actif 131 / 136 40% 1 02.04.2027 -
Jacques Ekomié Wrexham Actif 137 / 132 40% 1 01.04.2027 -
Aaron Hickey Brentford Actif 155 / 142 40% 1 01.04.2027 -
Antonee Robinson Fulham Actif 154 / 144 40% 3 27.03.2027 -
Toti Wolverhampton Actif 141 / 136 40% 1 27.03.2027 -
Kenny Tete Fulham Actif 138 / 135 40% 2 26.03.2027 -
Jordan Lotomba Bloemfontein Celtic Actif 121 / 126 40% 1 26.03.2027 -
Luke McNally Bristol City Actif 126 / 125 40% 1 25.03.2027 -
Daniel Muñoz Nottingham Forest Actif 160 / 150 40% 1 21.03.2027 -
César Araújo Tigres Actif 129 / 124 40% 2 02.12.2026 -
Víctor Guzmán Monterrey Actif 130 / 129 40% 2 02.12.2026 -
Carlos Jimenez Veracruz Actif 117 / 121 40% 1 02.12.2026 -
José Castillo Guadalajara Actif 125 / 116 40% 1 29.11.2026 -
Jackson Porozo Tijuana Actif 112 / 116 40% 1 29.11.2026 -
Agustín Palavecino Cruz Azul Actif 145 / 136 40% 1 28.11.2026 -
Sebastián Córdova Pumas UNAM Actif 133 / 129 40% 2 27.11.2026 -
Nacho Vidal Santos Laguna Actif 125 / 131 40% 5 24.11.2026 -
Carlos Rodríguez Cruz Azul Actif 140 / 137 40% 4 24.11.2026 -
Carlos Álvarez Club America Actif 138 / 140 40% 6 21.11.2026 -
Marcelino Moreno Lanús Actif 135 / 130 40% 4 20.11.2026 -
Carlos Gruezo Santos Laguna Actif 129 / 126 40% 2 19.11.2026 -
Edu Expósito Espanyol Actif 142 / 145 40% 1 15.11.2026 -
Saúl Salcedo Newell's Old Boys Actif 117 / 118 40% 2 14.11.2026 -
Diego Barbosa Toluca Actif 127 / 121 40% 1 14.11.2026 -
César Ibáñez Huracán Actif 118 / 121 40% 1 13.11.2026 -
Emanuel Mammana Vélez Actif 134 / 125 40% 1 13.11.2026 -
Richard Ledezma Guadalajara Actif 133 / 136 40% 4 12.11.2026 -
Víctor Guzmán Toluca Actif 132 / 129 40% 3 12.11.2026 -
Franco Ibarra Rosario Central Actif 128 / 129 40% 1 12.11.2026 -
Iván Tapia Barracas Central Actif 122 / 115 40% 1 12.11.2026 -
Matías Zaracho Racing Club Actif 131 / 128 40% 2 08.11.2026 -
Luis Romo Guadalajara Actif 132 / 136 40% 4 07.11.2026 -
Kevin Álvarez Club America Actif 138 / 129 40% 2 04.11.2026 -
Christian Rivera Pachuca Actif 127 / 124 40% 2 04.11.2026 -
José Florentín Independiente Rivadavia Actif 125 / 120 40% 2 03.11.2026 -
Gastón Hernández San Lorenzo Actif 122 / 125 40% 1 03.11.2026 -
Ricardo Chávez Monterrey Actif 131 / 127 40% 2 02.11.2026 -
Omar Campos Cruz Azul Actif 122 / 127 40% 2 02.11.2026 -
Carlos Rotondi Cruz Azul Actif 136 / 133 40% 2 01.11.2026 -
Leandro Lozano Boca Juniors Actif 123 / 125 40% 1 31.10.2026 -
Rodrigo Echeverría Leon Actif 132 / 126 40% 1 31.10.2026 -
Guido Mainero Platense Actif 124 / 127 40% 2 30.10.2026 -
Nazareno Colombo Racing Club Actif 124 / 125 40% 2 30.10.2026 -
Jesús Garza Tigres Actif 125 / 121 40% 1 28.10.2026 -
Fidel Ambríz Monterrey Actif 128 / 133 40% 1 27.10.2026 -
Manu Morlanes Mallorca Actif 143 / 132 40% 2 24.10.2026 -
Lucas Souto Defensa y Justicia Actif 133 / 120 40% 1 24.10.2026 -
Tiago Palacios Estudiantes Actif 124 / 128 40% 1 22.10.2026 -
Nicolás Tripichio San Lorenzo Actif 133 / 125 40% 1 21.10.2026 -
Fernando Beltrán Leon Actif 133 / 124 40% 3 15.10.2026 -
Erik Lira Cruz Azul Actif 133 / 131 40% 1 15.10.2026 -
Juninho Pumas UNAM Actif 133 / 127 40% 3 14.10.2026 -
Santiago Longo Belgrano Actif 134 / 128 40% 1 13.10.2026 -
Santiago Montiel Independiente Actif 118 / 127 40% 1 10.10.2026 -
Damián Fernández Defensa y Justicia Actif 129 / 125 40% 1 07.10.2026 -
Brian Rodríguez Club America Actif 124 / 128 40% 2 04.10.2026 -
Emanuel Coronel Rosario Central Actif 125 / 122 40% 1 30.09.2026 -
Alejandro Zendejas Club America Actif 138 / 137 40% 4 23.09.2026 -
Ander Guevara Racing Genk Actif 125 / 131 40% 2 15.09.2026 -
Manuel Capasso Atlas Actif 119 / 122 40% 1 10.09.2026 -
Brian Gutiérrez Guadalajara Actif 125 / 128 40% 1 02.09.2026 -
Jesús Angulo Tigres Actif 138 / 131 40% 1 01.09.2026 -
Bryan González Guadalajara Actif 128 / 129 40% 1 28.08.2026 -
Alexey Miranchuk Atlanta United FC Actif 136 / 144 40% 1 23.08.2026 -
Sergi Cardona KAA Gent Actif 154 / 152 40% 1 23.08.2026 -
Diego Enríquez Sporting Cristal Actif 133 / 130 40% 1 21.08.2026 -
Gerardo Arteaga Monterrey Actif 124 / 127 40% 1 18.08.2026 -
Luís Esteves Atlas Actif 135 / 124 40% 1 16.08.2026 -
Ángel González Libertad Actif 98 / 107 40% 1 14.08.2026 -
Tomás Ahumada Audax Italiano Actif 105 / 105 40% 1 13.08.2026 -
Álvaro Angulo Pumas UNAM Actif 129 / 124 40% 1 10.08.2026 -
Bruno Méndez Toluca Actif 128 / 125 40% 1 07.08.2026 -
Frankarlos Benítez Caracas Actif 92 / 105 40% 1 05.08.2026 -
Jorge Sánchez Atlas Actif 122 / 128 40% 1 03.08.2026 -